createdAt,value
2018-08-09T00:00:25.600Z,11.53
2018-08-09T00:02:54.221Z,12.53
2018-08-09T00:05:22.989Z,10.43
2018-08-09T00:07:51.582Z,11.03
2018-08-09T00:10:20.164Z,10.83
2018-08-09T00:12:48.791Z,10.07
2018-08-09T00:15:17.320Z,10.33
2018-08-09T00:17:46.921Z,10.20
2018-08-09T00:20:15.465Z,10.77
2018-08-09T00:22:44.055Z,10.47
2018-08-09T00:25:12.590Z,10.80
2018-08-09T00:27:41.158Z,11.33
2018-08-09T00:30:09.702Z,11.53
2018-08-09T00:32:38.361Z,11.57
2018-08-09T00:35:06.997Z,11.80
2018-08-09T00:37:42.260Z,12.20
2018-08-09T00:40:10.815Z,12.87
2018-08-09T00:42:39.412Z,11.70
2018-08-09T00:45:08.004Z,12.73
2018-08-09T00:47:36.619Z,12.43
2018-08-09T00:50:05.784Z,12.67
2018-08-09T00:52:34.365Z,10.77
2018-08-09T00:55:02.973Z,11.53
2018-08-09T00:57:31.527Z,12.90
2018-08-09T01:00:00.354Z,12.80
2018-08-09T01:02:28.946Z,12.07
2018-08-09T01:04:57.560Z,11.83
2018-08-09T01:07:26.136Z,11.50
2018-08-09T01:09:54.752Z,10.60
2018-08-09T01:12:23.316Z,11.53
2018-08-09T01:14:51.901Z,11.00
2018-08-09T01:17:20.462Z,11.13
2018-08-09T01:19:49.059Z,11.40
2018-08-09T01:22:17.675Z,11.87
2018-08-09T01:24:46.304Z,10.70
2018-08-09T01:27:14.854Z,11.80
2018-08-09T01:29:43.435Z,11.97
2018-08-09T01:32:11.980Z,12.50
2018-08-09T01:34:40.564Z,12.23
2018-08-09T01:37:09.140Z,11.80
2018-08-09T01:39:37.735Z,12.43
2018-08-09T01:42:17.440Z,13.43
2018-08-09T01:44:46.025Z,12.63
2018-08-09T01:47:14.600Z,12.73
2018-08-09T01:49:43.202Z,13.03
2018-08-09T01:52:11.780Z,13.50
2018-08-09T01:54:40.365Z,12.23
2018-08-09T01:57:08.953Z,11.40
2018-08-09T01:59:37.879Z,12.23
2018-08-09T02:02:06.534Z,11.87
2018-08-09T02:04:35.143Z,12.90
2018-08-09T02:07:03.649Z,13.93
2018-08-09T02:09:33.781Z,10.93
2018-08-09T02:12:03.243Z,12.93
2018-08-09T02:14:31.845Z,13.30
2018-08-09T02:17:00.620Z,14.18
2018-08-09T02:19:29.197Z,12.63
2018-08-09T02:21:57.756Z,13.40
2018-08-09T02:24:26.361Z,13.83
2018-08-09T02:26:54.896Z,13.57
2018-08-09T02:29:23.465Z,12.90
2018-08-09T02:31:51.985Z,14.18
2018-08-09T02:34:20.566Z,12.27
2018-08-09T02:36:49.088Z,11.60
2018-08-09T02:39:17.840Z,11.38
2018-08-09T02:41:46.406Z,11.93
2018-08-09T02:44:14.929Z,11.37
2018-08-09T02:46:43.566Z,12.10
2018-08-09T02:49:12.477Z,12.20
2018-08-09T02:51:41.077Z,11.40
2018-08-09T02:54:09.661Z,12.67
2018-08-09T02:56:38.241Z,12.90
2018-08-09T02:59:06.837Z,10.87
2018-08-09T03:01:35.461Z,10.30
2018-08-09T03:04:04.065Z,10.30
2018-08-09T03:06:32.644Z,11.20
2018-08-09T03:09:01.206Z,10.07
2018-08-09T03:11:29.836Z,11.53
2018-08-09T03:13:58.512Z,10.47
2018-08-09T03:16:27.124Z,10.20
2018-08-09T03:18:55.721Z,10.78
2018-08-09T03:21:24.328Z,10.70
2018-08-09T03:23:52.896Z,10.70
2018-08-09T03:26:21.512Z,11.73
2018-08-09T03:28:50.087Z,11.48
2018-08-09T03:31:18.686Z,10.80
2018-08-09T03:33:48.229Z,11.70
2018-08-09T03:36:16.858Z,11.27
2018-08-09T03:38:45.411Z,10.53
2018-08-09T03:41:14.001Z,10.47
2018-08-09T03:43:42.565Z,11.97
2018-08-09T03:46:11.163Z,11.53
2018-08-09T03:48:39.689Z,12.03
2018-08-09T03:51:08.274Z,11.00
2018-08-09T03:53:36.817Z,11.67
2018-08-09T03:56:05.752Z,12.20
2018-08-09T03:58:34.286Z,12.07
2018-08-09T04:01:02.832Z,11.12
2018-08-09T04:03:31.366Z,11.20
2018-08-09T04:05:59.925Z,10.77
2018-08-09T04:08:28.456Z,10.57
2018-08-09T04:10:57.007Z,10.95
2018-08-09T04:13:25.528Z,10.67
2018-08-09T04:15:54.081Z,10.70
2018-08-09T04:18:22.625Z,11.90
2018-08-09T04:20:51.141Z,10.55
2018-08-09T04:23:19.742Z,11.13
2018-08-09T04:25:48.392Z,11.03
2018-08-09T04:28:16.945Z,10.63
2018-08-09T04:30:45.470Z,10.10
2018-08-09T04:33:14.020Z,11.63
2018-08-09T04:35:42.570Z,10.17
2018-08-09T04:38:11.153Z,10.70
2018-08-09T04:40:39.677Z,10.00
2018-08-09T04:43:08.241Z,10.03
2018-08-09T04:45:36.781Z,11.23
2018-08-09T04:48:05.625Z,11.38
2018-08-09T04:50:34.316Z,10.93
2018-08-09T04:53:02.865Z,11.27
2018-08-09T04:55:31.409Z,11.30
2018-08-09T04:58:00.282Z,11.67
2018-08-09T05:00:29.340Z,12.23
2018-08-09T05:02:57.893Z,11.83
2018-08-09T05:05:26.432Z,11.20
2018-08-09T05:07:55.059Z,11.68
2018-08-09T05:10:26.660Z,11.08
2018-08-09T05:12:55.788Z,11.63
2018-08-09T05:15:24.325Z,10.90
2018-08-09T05:17:52.920Z,10.47
2018-08-09T05:20:21.485Z,10.90
2018-08-09T05:22:50.060Z,11.27
2018-08-09T05:25:18.602Z,10.33
2018-08-09T05:27:47.200Z,10.50
2018-08-09T05:30:15.741Z,10.50
2018-08-09T05:32:44.324Z,10.70
2018-08-09T05:35:12.877Z,10.10
2018-08-09T05:37:41.437Z,11.37
2018-08-09T05:40:10.000Z,11.60
2018-08-09T05:42:38.579Z,11.00
2018-08-09T05:45:07.131Z,10.53
2018-08-09T05:47:35.965Z,11.00
2018-08-09T05:50:05.045Z,12.30
2018-08-09T05:52:33.665Z,11.60
2018-08-09T05:55:02.398Z,10.93
2018-08-09T05:57:30.973Z,10.70
2018-08-09T05:59:59.596Z,11.08
2018-08-09T06:02:28.214Z,10.50
2018-08-09T06:04:56.783Z,10.47
2018-08-09T06:07:25.413Z,10.80
2018-08-09T06:09:54.049Z,11.03
2018-08-09T06:12:22.665Z,11.23
2018-08-09T06:14:54.958Z,11.77
2018-08-09T06:17:23.754Z,9.80
2018-08-09T06:19:52.312Z,9.53
2018-08-09T06:22:20.924Z,10.17
2018-08-09T06:24:49.544Z,11.13
2018-08-09T06:27:18.832Z,11.30
2018-08-09T06:29:47.469Z,10.67
2018-08-09T06:32:16.045Z,10.73
2018-08-09T06:34:44.644Z,10.73
2018-08-09T06:37:13.232Z,10.70
2018-08-09T06:39:41.852Z,9.15
2018-08-09T06:42:10.425Z,9.87
2018-08-09T06:44:39.020Z,10.37
2018-08-09T06:47:07.649Z,10.00
2018-08-09T06:49:36.230Z,9.93
2018-08-09T06:52:04.840Z,9.87
2018-08-09T06:54:33.442Z,9.63
2018-08-09T06:57:02.002Z,9.07
2018-08-09T06:59:30.688Z,8.90
2018-08-09T07:01:59.251Z,9.95
2018-08-09T07:04:27.847Z,10.27
2018-08-09T07:06:56.459Z,9.57
2018-08-09T07:09:25.105Z,8.70
2018-08-09T07:11:53.673Z,9.90
2018-08-09T07:14:22.272Z,8.80
2018-08-09T07:16:51.063Z,9.93
2018-08-09T07:19:19.684Z,8.67
2018-08-09T07:21:49.056Z,9.68
2018-08-09T07:24:17.667Z,9.07
2018-08-09T07:26:51.620Z,8.70
2018-08-09T07:29:20.659Z,8.80
2018-08-09T07:31:49.230Z,8.30
2018-08-09T07:34:19.224Z,8.20
2018-08-09T07:36:47.796Z,7.13
2018-08-09T07:39:16.516Z,9.07
2018-08-09T07:41:45.052Z,8.23
2018-08-09T07:44:13.635Z,7.97
2018-08-09T07:46:42.202Z,8.80
2018-08-09T07:49:10.751Z,7.67
2018-08-09T07:51:39.290Z,8.07
2018-08-09T07:54:07.901Z,8.27
2018-08-09T07:56:36.469Z,7.85
2018-08-09T07:59:05.058Z,8.67
2018-08-09T08:01:33.651Z,9.13
2018-08-09T08:04:02.204Z,8.53
2018-08-09T08:06:30.716Z,8.03
2018-08-09T08:08:59.292Z,8.10
2018-08-09T08:11:27.815Z,7.90
2018-08-09T08:13:56.380Z,8.63
2018-08-09T08:16:24.968Z,7.90
2018-08-09T08:18:53.566Z,7.80
2018-08-09T08:21:22.404Z,7.83
2018-08-09T08:23:50.964Z,8.17
2018-08-09T08:26:19.469Z,7.70
2018-08-09T08:28:48.013Z,7.43
2018-08-09T08:31:19.539Z,7.50
2018-08-09T08:33:48.113Z,7.80
2018-08-09T08:36:17.241Z,7.67
2018-08-09T08:38:46.161Z,7.97
2018-08-09T08:41:15.129Z,7.90
2018-08-09T08:43:43.676Z,8.17
2018-08-09T08:46:12.289Z,8.03
2018-08-09T08:48:40.856Z,8.20
2018-08-09T08:51:09.659Z,8.07
2018-08-09T08:53:38.189Z,7.90
2018-08-09T08:56:06.957Z,7.40
2018-08-09T08:58:35.501Z,7.87
2018-08-09T09:01:04.158Z,8.03
2018-08-09T09:03:32.679Z,7.60
2018-08-09T09:06:01.248Z,7.97
2018-08-09T09:08:30.023Z,7.90
2018-08-09T09:10:59.235Z,7.87
2018-08-09T09:13:27.781Z,8.17
2018-08-09T09:15:56.357Z,7.77
2018-08-09T09:18:24.906Z,8.07
2018-08-09T09:20:53.475Z,8.53
2018-08-09T09:23:22.005Z,7.43
2018-08-09T09:25:51.185Z,8.23
2018-08-09T09:28:19.727Z,8.00
2018-08-09T09:30:48.280Z,8.70
2018-08-09T09:33:16.813Z,8.10
2018-08-09T09:35:45.360Z,8.20
2018-08-09T09:38:13.893Z,15.70
2018-08-09T09:40:59.741Z,9.03
2018-08-09T09:43:28.276Z,8.27
2018-08-09T09:45:56.836Z,8.13
2018-08-09T09:48:25.451Z,8.67
2018-08-09T09:50:54.088Z,8.43
2018-08-09T09:53:22.680Z,7.93
2018-08-09T09:55:51.322Z,8.50
2018-08-09T09:58:19.880Z,8.07
2018-08-09T10:00:53.914Z,8.13
2018-08-09T10:03:22.470Z,8.07
2018-08-09T10:05:51.397Z,8.43
2018-08-09T10:08:20.194Z,8.93
2018-08-09T10:10:48.870Z,17.57
2018-08-09T10:13:17.499Z,9.00
2018-08-09T10:15:46.097Z,8.13
2018-08-09T10:18:14.657Z,8.50
2018-08-09T10:20:43.429Z,7.97
2018-08-09T10:23:13.173Z,9.07
2018-08-09T10:25:41.904Z,8.53
2018-08-09T10:28:12.824Z,8.30
2018-08-09T10:30:41.500Z,9.20
2018-08-09T10:33:10.089Z,8.37
2018-08-09T10:35:38.677Z,8.80
2018-08-09T10:38:07.334Z,8.53
2018-08-09T10:40:40.156Z,8.50
2018-08-09T10:43:08.947Z,8.10
2018-08-09T10:45:37.764Z,8.48
2018-08-09T10:48:10.093Z,8.43
2018-08-09T10:50:38.676Z,8.73
2018-08-09T10:53:07.301Z,8.70
2018-08-09T10:55:35.901Z,7.77
2018-08-09T10:58:05.627Z,8.15
2018-08-09T11:00:34.181Z,8.73
2018-08-09T11:03:02.765Z,8.50
2018-08-09T11:05:31.361Z,10.23
2018-08-09T11:07:59.993Z,12.27
2018-08-09T11:10:31.600Z,9.77
2018-08-09T11:13:01.300Z,12.80
2018-08-09T11:15:32.688Z,15.73
2018-08-09T11:18:01.305Z,13.48
2018-08-09T11:20:30.023Z,13.00
2018-08-09T11:22:58.867Z,13.38
2018-08-09T11:25:27.425Z,13.20
2018-08-09T11:27:56.014Z,14.07
2018-08-09T11:30:24.866Z,12.95
2018-08-09T11:32:53.428Z,12.73
2018-08-09T11:35:21.953Z,16.20
2018-08-09T11:37:50.520Z,12.10
2018-08-09T11:40:19.031Z,11.70
2018-08-09T11:42:47.557Z,12.40
2018-08-09T11:45:22.072Z,9.97
2018-08-09T11:47:58.844Z,9.30
2018-08-09T11:50:32.502Z,8.63
2018-08-09T11:53:09.024Z,9.33
2018-08-09T11:55:39.998Z,12.20
2018-08-09T11:58:10.102Z,9.30
2018-08-09T12:00:38.631Z,9.37
2018-08-09T12:03:11.571Z,10.20
2018-08-09T12:05:40.069Z,8.27
2018-08-09T12:08:08.601Z,9.80
2018-08-09T12:10:37.101Z,6.50
2018-08-09T12:13:05.640Z,5.30
2018-08-09T12:15:34.164Z,5.35
2018-08-09T12:18:02.723Z,6.00
2018-08-09T12:20:31.302Z,5.13
2018-08-09T12:22:59.863Z,4.77
2018-08-09T12:25:28.388Z,7.00
2018-08-09T12:27:57.167Z,4.57
2018-08-09T12:30:26.104Z,4.47
2018-08-09T12:32:55.118Z,4.55
2018-08-09T12:35:23.672Z,4.73
2018-08-09T12:37:52.229Z,4.33
2018-08-09T12:40:20.736Z,4.63
2018-08-09T12:42:49.320Z,4.80
2018-08-09T12:45:17.938Z,3.77
2018-08-09T12:47:46.510Z,3.90
2018-08-09T12:50:15.309Z,3.70
2018-08-09T12:52:44.871Z,10.70
2018-08-09T12:55:14.408Z,3.50
2018-08-09T12:57:44.490Z,23.70
2018-08-09T13:00:15.638Z,3.77
2018-08-09T13:02:44.259Z,3.43
2018-08-09T13:05:13.397Z,3.60
2018-08-09T13:07:42.313Z,2.87
2018-08-09T13:10:12.418Z,3.10
2018-08-09T13:12:41.605Z,3.10
2018-08-09T13:15:12.442Z,2.90
2018-08-09T13:17:41.866Z,2.53
2018-08-09T13:20:13.329Z,3.12
2018-08-09T13:22:42.362Z,2.50
2018-08-09T13:25:11.151Z,2.95
2018-08-09T13:27:39.909Z,2.70
2018-08-09T13:30:11.619Z,2.60
2018-08-09T13:32:40.401Z,2.97
2018-08-09T13:35:09.413Z,3.23
2018-08-09T13:37:38.032Z,3.07
2018-08-09T13:40:08.129Z,2.80
2018-08-09T13:42:37.589Z,2.40
2018-08-09T13:45:10.386Z,2.60
2018-08-09T13:47:39.570Z,14.33
2018-08-09T13:50:09.093Z,8.28
2018-08-09T13:52:38.005Z,2.63
2018-08-09T13:55:06.912Z,2.30
2018-08-09T13:57:35.564Z,2.72
2018-08-09T14:00:05.672Z,2.07
2018-08-09T14:02:35.641Z,2.27
2018-08-09T14:05:05.149Z,2.45
2018-08-09T14:07:33.788Z,2.80
2018-08-09T14:10:02.403Z,2.23
2018-08-09T14:12:30.990Z,2.40
2018-08-09T14:14:59.749Z,2.33
2018-08-09T14:17:28.892Z,1.80
2018-08-09T14:19:57.559Z,2.00
2018-08-09T14:22:26.108Z,2.10
2018-08-09T14:24:54.737Z,2.10
2018-08-09T14:27:23.265Z,2.13
2018-08-09T14:29:51.866Z,2.30
2018-08-09T14:32:20.427Z,1.93
2018-08-09T14:34:49.306Z,2.10
2018-08-09T14:37:17.904Z,2.90
2018-08-09T14:39:46.497Z,2.47
2018-08-09T14:42:15.905Z,2.20
2018-08-09T14:44:44.499Z,2.23
2018-08-09T14:47:19.303Z,4.00
2018-08-09T14:49:48.064Z,4.40
2018-08-09T14:52:17.657Z,5.42
2018-08-09T14:54:52.105Z,3.80
2018-08-09T14:57:20.771Z,3.27
2018-08-09T14:59:49.355Z,2.77
2018-08-09T15:02:22.031Z,3.40
2018-08-09T15:04:50.584Z,4.27
2018-08-09T15:07:19.134Z,3.60
2018-08-09T15:09:47.712Z,3.00
2018-08-09T15:12:18.610Z,3.57
2018-08-09T15:14:47.242Z,2.70
2018-08-09T15:17:15.753Z,2.37
2018-08-09T15:19:44.321Z,2.30
2018-08-09T15:22:12.881Z,1.90
2018-08-09T15:24:41.468Z,2.50
2018-08-09T15:27:10.040Z,3.67
2018-08-09T15:29:38.593Z,3.23
2018-08-09T15:32:09.048Z,5.23
2018-08-09T15:34:38.202Z,4.27
2018-08-09T15:37:13.800Z,2.50
2018-08-09T15:39:43.091Z,2.20
2018-08-09T15:42:11.628Z,3.40
2018-08-09T15:44:45.537Z,2.70
2018-08-09T15:47:15.771Z,5.70
2018-08-09T15:49:50.097Z,6.30
2018-08-09T15:52:18.832Z,7.30
2018-08-09T15:54:47.405Z,4.27
2018-08-09T15:57:16.304Z,5.07
2018-08-09T15:59:44.928Z,3.73
2018-08-09T16:02:13.556Z,3.33
2018-08-09T16:04:42.109Z,3.00
2018-08-09T16:07:10.708Z,2.47
2018-08-09T16:09:39.285Z,2.52
2018-08-09T16:12:07.861Z,3.62
2018-08-09T16:14:36.412Z,5.10
2018-08-09T16:17:05.000Z,4.13
2018-08-09T16:19:33.573Z,2.93
2018-08-09T16:22:02.468Z,2.57
2018-08-09T16:24:35.975Z,4.70
2018-08-09T16:27:10.712Z,10.43
2018-08-09T16:29:46.649Z,3.27
2018-08-09T16:32:19.340Z,4.47
2018-08-09T16:34:49.585Z,4.43
2018-08-09T16:37:19.635Z,3.92
2018-08-09T16:39:50.260Z,3.63
2018-08-09T16:42:20.037Z,2.83
2018-08-09T16:44:55.355Z,3.42
2018-08-09T16:47:31.025Z,3.33
2018-08-09T16:50:03.331Z,2.73
2018-08-09T16:52:33.977Z,3.10
2018-08-09T16:55:05.588Z,3.13
2018-08-09T16:57:34.962Z,3.20
2018-08-09T17:00:07.739Z,4.87
2018-08-09T17:02:36.613Z,4.00
2018-08-09T17:05:10.441Z,3.50
2018-08-09T17:07:41.271Z,3.42
2018-08-09T17:10:15.305Z,2.70
2018-08-09T17:12:43.956Z,2.60
2018-08-09T17:15:18.713Z,3.55
2018-08-09T17:17:49.448Z,4.87
2018-08-09T17:20:30.368Z,6.87
2018-08-09T17:23:06.921Z,5.83
2018-08-09T17:25:39.654Z,2.80
2018-08-09T17:28:10.006Z,1.70
2018-08-09T17:30:44.501Z,5.08
2018-08-09T17:33:17.783Z,1.60
2018-08-09T17:35:56.334Z,2.27
2018-08-09T17:38:27.016Z,2.33
2018-08-09T17:41:00.588Z,2.60
2018-08-09T17:43:30.644Z,1.80
2018-08-09T17:46:06.115Z,2.43
2018-08-09T17:48:36.713Z,1.50
2018-08-09T17:51:09.203Z,2.00
2018-08-09T17:53:44.011Z,1.47
2018-08-09T17:56:17.746Z,1.42
2018-08-09T17:58:50.715Z,39.33
2018-08-09T18:01:22.941Z,1.60
2018-08-09T18:03:57.326Z,1.40
2018-08-09T18:06:32.523Z,1.73
2018-08-09T18:09:02.444Z,1.50
2018-08-09T18:11:34.114Z,1.82
2018-08-09T18:14:08.841Z,1.47
2018-08-09T18:16:44.170Z,1.57
2018-08-09T18:19:15.595Z,1.70
2018-08-09T18:21:49.004Z,1.83
2018-08-09T18:27:07.685Z,2.80
2018-08-09T18:29:40.194Z,1.80
2018-08-09T18:32:16.560Z,1.80
2018-08-09T18:34:55.419Z,1.80
2018-08-09T18:37:28.828Z,1.90
2018-08-09T18:42:57.728Z,1.40
2018-08-09T18:45:26.577Z,1.70
2018-08-09T18:47:55.267Z,1.67
2018-08-09T18:50:27.187Z,1.70
2018-08-09T18:52:55.915Z,1.70
2018-08-09T18:55:25.994Z,1.70
2018-08-09T18:57:54.693Z,1.60
2018-08-09T19:00:26.952Z,1.80
2018-08-09T19:02:55.771Z,1.50
2018-08-09T19:05:24.636Z,1.50
2018-08-09T19:07:53.688Z,1.53
2018-08-09T19:10:28.273Z,2.97
2018-08-09T19:12:56.933Z,1.80
2018-08-09T19:15:25.739Z,2.03
2018-08-09T19:17:54.529Z,2.10
2018-08-09T19:20:28.770Z,2.40
2018-08-09T19:23:01.090Z,2.23
2018-08-09T19:25:30.454Z,2.10
2018-08-09T19:27:59.841Z,1.70
2018-08-09T19:30:32.005Z,1.80
2018-08-09T19:33:02.603Z,1.70
2018-08-09T19:35:32.821Z,1.72
2018-08-09T19:38:04.918Z,1.30
2018-08-09T19:40:33.849Z,1.40
2018-08-09T19:43:02.550Z,1.43
2018-08-09T19:45:32.205Z,1.60
2018-08-09T19:48:00.863Z,3.30
2018-08-09T19:50:29.448Z,2.67
2018-08-09T19:52:58.067Z,1.70
2018-08-09T19:55:27.897Z,2.30
2018-08-09T19:57:56.455Z,1.60
2018-08-09T20:00:26.953Z,2.10
2018-08-09T20:02:55.548Z,3.27
2018-08-09T20:05:24.636Z,1.87
2018-08-09T20:07:53.222Z,1.77
2018-08-09T20:10:22.045Z,2.20
2018-08-09T20:12:50.601Z,2.53
2018-08-09T20:15:20.737Z,1.87
2018-08-09T20:17:49.397Z,1.80
2018-08-09T20:20:19.649Z,1.47
2018-08-09T20:22:48.181Z,1.30
2018-08-09T20:25:16.936Z,1.60
2018-08-09T20:27:46.185Z,1.40
2018-08-09T20:30:15.999Z,1.50
2018-08-09T20:32:45.203Z,1.30
2018-08-09T20:35:17.198Z,1.70
2018-08-09T20:37:47.648Z,1.37
2018-08-09T20:40:19.456Z,1.30
2018-08-09T20:42:52.516Z,1.50
2018-08-09T20:45:24.598Z,1.30
2018-08-09T20:47:53.559Z,1.37
2018-08-09T20:50:24.052Z,1.30
2018-08-09T20:52:54.558Z,1.40
2018-08-09T20:55:26.540Z,1.20
2018-08-09T20:58:00.737Z,1.20
2018-08-09T21:00:35.641Z,1.27
2018-08-09T21:03:06.686Z,1.30
2018-08-09T21:05:38.987Z,1.10
2018-08-09T21:08:12.669Z,1.00
2018-08-09T21:10:41.509Z,1.10
2018-08-09T21:13:10.068Z,1.00
2018-08-09T21:15:38.819Z,1.40
2018-08-09T21:18:07.744Z,1.07
2018-08-09T21:20:36.358Z,1.10
2018-08-09T21:23:05.617Z,1.30
2018-08-09T21:25:34.205Z,0.97
2018-08-09T21:28:02.838Z,1.00
2018-08-09T21:30:31.424Z,1.07
2018-08-09T21:33:00.014Z,0.70
2018-08-09T21:35:37.067Z,0.80
2018-08-09T21:38:05.848Z,0.60
2018-08-09T21:40:36.674Z,0.50
2018-08-09T21:43:07.121Z,0.53
2018-08-09T21:45:35.850Z,0.60
2018-08-09T21:48:08.132Z,0.60
2018-08-09T21:50:37.540Z,0.67
2018-08-09T21:53:10.385Z,0.67
2018-08-09T21:55:42.944Z,0.50
2018-08-09T21:58:14.928Z,0.62
2018-08-09T22:01:08.042Z,0.70
2018-08-09T22:03:40.067Z,0.60
2018-08-09T22:06:14.156Z,0.50
2018-08-09T22:08:49.538Z,0.60
2018-08-09T22:11:26.221Z,0.60
2018-08-09T22:14:02.590Z,0.50
2018-08-09T22:16:38.986Z,0.60
2018-08-09T22:19:13.794Z,0.50
2018-08-09T22:21:47.720Z,0.80
2018-08-09T22:24:16.264Z,0.60
2018-08-09T22:26:46.355Z,0.70
2018-08-09T22:29:20.084Z,0.50
2018-08-09T22:31:50.264Z,0.78
2018-08-09T22:34:23.310Z,0.70
2018-08-09T22:36:53.751Z,0.67
2018-08-09T22:39:25.500Z,0.67
2018-08-09T22:41:54.041Z,0.53
2018-08-09T22:44:24.686Z,0.80
2018-08-09T22:46:56.115Z,0.70
2018-08-09T22:49:29.703Z,0.60
2018-08-09T22:51:58.882Z,0.73
2018-08-09T22:54:32.455Z,0.70
2018-08-09T22:57:01.145Z,0.73
2018-08-09T22:59:29.689Z,0.60
2018-08-09T23:01:58.733Z,0.60
2018-08-09T23:04:27.846Z,0.70
2018-08-09T23:07:01.064Z,0.70
2018-08-09T23:09:34.593Z,0.70
2018-08-09T23:12:03.471Z,0.60
2018-08-09T23:14:32.282Z,0.80
2018-08-09T23:17:00.884Z,0.53
2018-08-09T23:19:36.097Z,0.80
2018-08-09T23:22:05.188Z,0.60
2018-08-09T23:24:33.700Z,0.60
2018-08-09T23:27:02.260Z,0.73
2018-08-09T23:29:30.824Z,0.63
2018-08-09T23:31:59.463Z,0.87
2018-08-09T23:34:28.060Z,0.77
2018-08-09T23:36:56.624Z,1.50
2018-08-09T23:39:25.209Z,0.67
2018-08-09T23:41:53.752Z,0.60
2018-08-09T23:44:23.218Z,0.70
2018-08-09T23:46:51.924Z,0.60
2018-08-09T23:49:20.513Z,0.80
2018-08-09T23:51:49.086Z,0.90
2018-08-09T23:54:17.668Z,1.00
2018-08-09T23:56:46.228Z,0.78
2018-08-09T23:59:14.805Z,1.10
